sensor_id;sensor_type;location;lat;lon;timestamp;P1;durP1;ratioP1;P2;durP2;ratioP2
57311;SDS011;43154;50.966;18.316;2023-03-01T00:01:12;85.20;;;28.60;;
57311;SDS011;43154;50.966;18.316;2023-03-01T00:03:41;86.00;;;29.10;;
57311;SDS011;43154;50.966;18.316;2023-03-01T00:06:08;85.00;;;29.00;;
57311;SDS011;43154;50.966;18.316;2023-03-01T00:08:37;88.40;;;31.90;;
57311;SDS011;43154;50.966;18.316;2023-03-01T00:11:13;82.90;;;29.90;;
57311;SDS011;43154;50.966;18.316;2023-03-01T00:13:47;92.10;;;30.70;;
57311;SDS011;43154;50.966;18.316;2023-03-01T00:16:16;84.80;;;30.50;;
57311;SDS011;43154;50.966;18.316;2023-03-01T00:18:48;90.60;;;29.30;;
57311;SDS011;43154;50.966;18.316;2023-03-01T00:21:15;81.60;;;29.80;;
57311;SDS011;43154;50.966;18.316;2023-03-01T00:23:42;80.90;;;28.30;;
57311;SDS011;43154;50.966;18.316;2023-03-01T00:26:09;94.20;;;30.30;;
57311;SDS011;43154;50.966;18.316;2023-03-01T00:28:39;72.70;;;27.40;;
57311;SDS011;43154;50.966;18.316;2023-03-01T00:31:12;74.30;;;27.10;;
57311;SDS011;43154;50.966;18.316;2023-03-01T00:33:40;88.40;;;30.10;;
57311;SDS011;43154;50.966;18.316;2023-03-01T00:36:06;76.80;;;28.40;;
57311;SDS011;43154;50.966;18.316;2023-03-01T00:38:40;89.20;;;33.70;;
57311;SDS011;43154;50.966;18.316;2023-03-01T00:41:09;102.30;;;38.50;;
57311;SDS011;43154;50.966;18.316;2023-03-01T00:43:38;105.20;;;39.40;;
57311;SDS011;43154;50.966;18.316;2023-03-01T00:46:05;93.00;;;35.20;;
57311;SDS011;43154;50.966;18.316;2023-03-01T00:51:04;81.10;;;28.00;;
57311;SDS011;43154;50.966;18.316;2023-03-01T00:57:02;98.70;;;34.50;;
57311;SDS011;43154;50.966;18.316;2023-03-01T00:59:36;113.60;;;42.40;;
57311;SDS011;43154;50.966;18.316;2023-03-01T01:02:03;110.80;;;39.60;;
57311;SDS011;43154;50.966;18.316;2023-03-01T01:04:31;105.30;;;38.50;;
57311;SDS011;43154;50.966;18.316;2023-03-01T01:07:01;113.00;;;39.80;;
57311;SDS011;43154;50.966;18.316;2023-03-01T01:09:30;124.20;;;45.90;;
57311;SDS011;43154;50.966;18.316;2023-03-01T01:12:03;138.40;;;48.80;;
57311;SDS011;43154;50.966;18.316;2023-03-01T01:14:30;127.10;;;45.90;;
57311;SDS011;43154;50.966;18.316;2023-03-01T01:16:57;117.80;;;43.50;;
57311;SDS011;43154;50.966;18.316;2023-03-01T01:19:25;120.60;;;41.60;;
57311;SDS011;43154;50.966;18.316;2023-03-01T01:21:52;97.30;;;37.50;;
57311;SDS011;43154;50.966;18.316;2023-03-01T01:24:21;101.10;;;37.00;;
57311;SDS011;43154;50.966;18.316;2023-03-01T01:26:49;94.50;;;35.90;;
57311;SDS011;43154;50.966;18.316;2023-03-01T01:29:16;96.80;;;35.50;;
57311;SDS011;43154;50.966;18.316;2023-03-01T01:31:47;94.80;;;34.40;;
57311;SDS011;43154;50.966;18.316;2023-03-01T01:34:19;94.70;;;34.70;;
57311;SDS011;43154;50.966;18.316;2023-03-01T01:36:48;90.60;;;33.90;;
57311;SDS011;43154;50.966;18.316;2023-03-01T01:39:17;104.10;;;34.40;;
57311;SDS011;43154;50.966;18.316;2023-03-01T01:41:46;84.90;;;31.20;;
57311;SDS011;43154;50.966;18.316;2023-03-01T01:44:21;87.50;;;31.40;;
57311;SDS011;43154;50.966;18.316;2023-03-01T01:46:55;81.50;;;29.60;;
57311;SDS011;43154;50.966;18.316;2023-03-01T01:52:12;76.30;;;27.50;;
57311;SDS011;43154;50.966;18.316;2023-03-01T01:57:31;74.00;;;26.80;;
57311;SDS011;43154;50.966;18.316;2023-03-01T02:00:09;75.40;;;27.70;;
57311;SDS011;43154;50.966;18.316;2023-03-01T02:02:41;81.60;;;28.90;;
57311;SDS011;43154;50.966;18.316;2023-03-01T02:05:14;72.80;;;26.60;;
57311;SDS011;43154;50.966;18.316;2023-03-01T02:07:43;82.30;;;29.10;;
57311;SDS011;43154;50.966;18.316;2023-03-01T02:10:11;92.30;;;30.90;;
57311;SDS011;43154;50.966;18.316;2023-03-01T02:12:38;93.70;;;32.50;;
57311;SDS011;43154;50.966;18.316;2023-03-01T02:15:07;89.50;;;31.60;;
57311;SDS011;43154;50.966;18.316;2023-03-01T02:17:33;85.30;;;30.60;;
57311;SDS011;43154;50.966;18.316;2023-03-01T02:22:53;83.10;;;29.90;;
57311;SDS011;43154;50.966;18.316;2023-03-01T02:30:26;95.20;;;32.40;;
57311;SDS011;43154;50.966;18.316;2023-03-01T02:32:53;90.30;;;30.70;;
57311;SDS011;43154;50.966;18.316;2023-03-01T02:35:35;86.60;;;31.00;;
57311;SDS011;43154;50.966;18.316;2023-03-01T02:38:03;85.60;;;30.10;;
57311;SDS011;43154;50.966;18.316;2023-03-01T02:40:34;89.50;;;32.70;;
57311;SDS011;43154;50.966;18.316;2023-03-01T02:43:02;80.10;;;29.80;;
57311;SDS011;43154;50.966;18.316;2023-03-01T02:45:31;78.50;;;29.30;;
57311;SDS011;43154;50.966;18.316;2023-03-01T02:47:58;89.90;;;30.80;;
57311;SDS011;43154;50.966;18.316;2023-03-01T02:55:39;78.90;;;28.90;;
57311;SDS011;43154;50.966;18.316;2023-03-01T02:58:05;79.50;;;29.00;;
57311;SDS011;43154;50.966;18.316;2023-03-01T03:00:35;74.60;;;27.50;;
57311;SDS011;43154;50.966;18.316;2023-03-01T03:03:13;84.10;;;28.30;;
57311;SDS011;43154;50.966;18.316;2023-03-01T03:05:41;78.80;;;28.50;;
57311;SDS011;43154;50.966;18.316;2023-03-01T03:08:07;83.70;;;30.50;;
57311;SDS011;43154;50.966;18.316;2023-03-01T03:10:34;82.20;;;29.10;;
57311;SDS011;43154;50.966;18.316;2023-03-01T03:13:04;73.20;;;26.70;;
57311;SDS011;43154;50.966;18.316;2023-03-01T03:15:33;75.20;;;27.60;;
57311;SDS011;43154;50.966;18.316;2023-03-01T03:18:01;73.20;;;26.40;;
57311;SDS011;43154;50.966;18.316;2023-03-01T03:20:28;77.80;;;27.40;;
57311;SDS011;43154;50.966;18.316;2023-03-01T03:22:57;78.20;;;26.80;;
57311;SDS011;43154;50.966;18.316;2023-03-01T03:25:24;84.50;;;28.40;;
57311;SDS011;43154;50.966;18.316;2023-03-01T03:27:53;82.20;;;28.50;;
57311;SDS011;43154;50.966;18.316;2023-03-01T03:30:28;89.40;;;28.60;;
57311;SDS011;43154;50.966;18.316;2023-03-01T03:32:58;86.90;;;28.90;;
57311;SDS011;43154;50.966;18.316;2023-03-01T03:35:29;78.10;;;27.60;;
57311;SDS011;43154;50.966;18.316;2023-03-01T03:40:33;78.10;;;26.80;;
57311;SDS011;43154;50.966;18.316;2023-03-01T03:43:04;78.40;;;28.00;;
57311;SDS011;43154;50.966;18.316;2023-03-01T03:45:34;82.80;;;28.30;;
57311;SDS011;43154;50.966;18.316;2023-03-01T03:48:01;80.60;;;28.90;;
57311;SDS011;43154;50.966;18.316;2023-03-01T03:50:30;81.60;;;29.40;;
57311;SDS011;43154;50.966;18.316;2023-03-01T03:52:56;84.80;;;30.70;;
57311;SDS011;43154;50.966;18.316;2023-03-01T03:55:23;82.80;;;29.50;;
57311;SDS011;43154;50.966;18.316;2023-03-01T03:57:54;81.80;;;29.40;;
57311;SDS011;43154;50.966;18.316;2023-03-01T04:00:28;80.70;;;28.90;;
57311;SDS011;43154;50.966;18.316;2023-03-01T04:02:56;84.20;;;29.10;;
57311;SDS011;43154;50.966;18.316;2023-03-01T04:05:22;79.10;;;28.00;;
57311;SDS011;43154;50.966;18.316;2023-03-01T04:07:50;78.10;;;28.50;;
57311;SDS011;43154;50.966;18.316;2023-03-01T04:10:26;83.50;;;29.30;;
57311;SDS011;43154;50.966;18.316;2023-03-01T04:12:54;84.50;;;28.70;;
57311;SDS011;43154;50.966;18.316;2023-03-01T04:15:22;83.60;;;28.50;;
57311;SDS011;43154;50.966;18.316;2023-03-01T04:17:51;87.10;;;29.20;;
57311;SDS011;43154;50.966;18.316;2023-03-01T04:20:20;91.40;;;29.60;;
57311;SDS011;43154;50.966;18.316;2023-03-01T04:22:52;84.30;;;29.40;;
57311;SDS011;43154;50.966;18.316;2023-03-01T04:25:26;93.40;;;31.30;;
57311;SDS011;43154;50.966;18.316;2023-03-01T04:27:52;89.40;;;30.20;;
57311;SDS011;43154;50.966;18.316;2023-03-01T04:30:19;89.40;;;30.00;;
57311;SDS011;43154;50.966;18.316;2023-03-01T04:32:45;91.80;;;31.50;;
57311;SDS011;43154;50.966;18.316;2023-03-01T04:35:11;83.70;;;30.00;;
57311;SDS011;43154;50.966;18.316;2023-03-01T04:37:44;84.30;;;29.60;;
57311;SDS011;43154;50.966;18.316;2023-03-01T04:40:12;96.30;;;30.30;;
57311;SDS011;43154;50.966;18.316;2023-03-01T04:42:42;93.40;;;32.70;;
57311;SDS011;43154;50.966;18.316;2023-03-01T04:45:08;98.50;;;32.80;;
57311;SDS011;43154;50.966;18.316;2023-03-01T04:47:42;83.40;;;29.60;;
57311;SDS011;43154;50.966;18.316;2023-03-01T04:50:14;85.40;;;30.20;;
57311;SDS011;43154;50.966;18.316;2023-03-01T04:52:43;74.90;;;27.50;;
57311;SDS011;43154;50.966;18.316;2023-03-01T04:55:10;83.90;;;29.90;;
57311;SDS011;43154;50.966;18.316;2023-03-01T04:57:38;82.60;;;29.00;;
57311;SDS011;43154;50.966;18.316;2023-03-01T05:00:06;87.70;;;31.40;;
57311;SDS011;43154;50.966;18.316;2023-03-01T05:02:48;84.90;;;30.50;;
57311;SDS011;43154;50.966;18.316;2023-03-01T05:05:19;86.60;;;30.60;;
57311;SDS011;43154;50.966;18.316;2023-03-01T05:07:55;85.10;;;29.70;;
57311;SDS011;43154;50.966;18.316;2023-03-01T05:10:23;78.60;;;28.30;;
57311;SDS011;43154;50.966;18.316;2023-03-01T05:12:51;92.40;;;30.20;;
57311;SDS011;43154;50.966;18.316;2023-03-01T05:15:18;85.90;;;30.70;;
57311;SDS011;43154;50.966;18.316;2023-03-01T05:17:48;92.40;;;30.70;;
57311;SDS011;43154;50.966;18.316;2023-03-01T05:20:16;88.20;;;30.70;;
57311;SDS011;43154;50.966;18.316;2023-03-01T05:22:49;89.90;;;29.40;;
57311;SDS011;43154;50.966;18.316;2023-03-01T05:25:16;91.30;;;30.20;;
57311;SDS011;43154;50.966;18.316;2023-03-01T05:27:43;85.40;;;29.70;;
57311;SDS011;43154;50.966;18.316;2023-03-01T05:30:11;86.90;;;29.10;;
57311;SDS011;43154;50.966;18.316;2023-03-01T05:32:49;81.60;;;29.80;;
57311;SDS011;43154;50.966;18.316;2023-03-01T05:35:21;78.50;;;28.20;;
57311;SDS011;43154;50.966;18.316;2023-03-01T05:37:49;85.50;;;29.00;;
57311;SDS011;43154;50.966;18.316;2023-03-01T05:40:17;88.00;;;29.80;;
57311;SDS011;43154;50.966;18.316;2023-03-01T05:42:47;88.00;;;29.20;;
57311;SDS011;43154;50.966;18.316;2023-03-01T05:45:16;83.40;;;29.40;;
57311;SDS011;43154;50.966;18.316;2023-03-01T05:47:45;83.90;;;29.30;;
57311;SDS011;43154;50.966;18.316;2023-03-01T05:50:15;97.10;;;31.30;;
57311;SDS011;43154;50.966;18.316;2023-03-01T05:52:47;90.00;;;30.40;;
57311;SDS011;43154;50.966;18.316;2023-03-01T05:55:20;95.90;;;30.50;;
57311;SDS011;43154;50.966;18.316;2023-03-01T05:57:48;83.40;;;29.50;;
57311;SDS011;43154;50.966;18.316;2023-03-01T06:00:16;89.80;;;30.30;;
57311;SDS011;43154;50.966;18.316;2023-03-01T06:02:48;83.80;;;31.20;;
57311;SDS011;43154;50.966;18.316;2023-03-01T06:05:14;92.20;;;31.10;;
57311;SDS011;43154;50.966;18.316;2023-03-01T06:07:42;97.40;;;33.20;;
57311;SDS011;43154;50.966;18.316;2023-03-01T06:10:10;93.70;;;32.30;;
57311;SDS011;43154;50.966;18.316;2023-03-01T06:12:40;97.40;;;32.60;;
57311;SDS011;43154;50.966;18.316;2023-03-01T06:15:11;94.50;;;32.90;;
57311;SDS011;43154;50.966;18.316;2023-03-01T06:17:40;95.40;;;32.80;;
57311;SDS011;43154;50.966;18.316;2023-03-01T06:20:13;114.10;;;43.70;;
57311;SDS011;43154;50.966;18.316;2023-03-01T06:22:46;127.50;;;45.00;;
57311;SDS011;43154;50.966;18.316;2023-03-01T06:25:16;117.50;;;42.90;;
57311;SDS011;43154;50.966;18.316;2023-03-01T06:27:52;109.60;;;38.30;;
57311;SDS011;43154;50.966;18.316;2023-03-01T06:30:18;109.20;;;38.90;;
57311;SDS011;43154;50.966;18.316;2023-03-01T06:32:46;103.80;;;36.20;;
57311;SDS011;43154;50.966;18.316;2023-03-01T06:35:13;104.60;;;35.90;;
57311;SDS011;43154;50.966;18.316;2023-03-01T06:37:43;98.40;;;34.30;;
57311;SDS011;43154;50.966;18.316;2023-03-01T06:40:11;99.50;;;35.10;;
57311;SDS011;43154;50.966;18.316;2023-03-01T06:42:40;100.60;;;34.30;;
57311;SDS011;43154;50.966;18.316;2023-03-01T06:45:09;98.10;;;33.30;;
57311;SDS011;43154;50.966;18.316;2023-03-01T06:47:36;104.30;;;34.10;;
57311;SDS011;43154;50.966;18.316;2023-03-01T06:50:05;93.30;;;33.50;;
57311;SDS011;43154;50.966;18.316;2023-03-01T06:52:32;94.50;;;33.30;;
57311;SDS011;43154;50.966;18.316;2023-03-01T06:54:59;90.30;;;33.10;;
57311;SDS011;43154;50.966;18.316;2023-03-01T06:57:26;101.40;;;34.10;;
57311;SDS011;43154;50.966;18.316;2023-03-01T06:59:53;102.40;;;35.70;;
57311;SDS011;43154;50.966;18.316;2023-03-01T07:02:20;101.30;;;35.90;;
57311;SDS011;43154;50.966;18.316;2023-03-01T07:04:51;112.20;;;36.60;;
57311;SDS011;43154;50.966;18.316;2023-03-01T07:07:18;109.80;;;37.20;;
57311;SDS011;43154;50.966;18.316;2023-03-01T07:09:46;109.80;;;38.20;;
57311;SDS011;43154;50.966;18.316;2023-03-01T07:12:14;118.90;;;38.80;;
57311;SDS011;43154;50.966;18.316;2023-03-01T07:14:45;125.20;;;42.50;;
57311;SDS011;43154;50.966;18.316;2023-03-01T07:17:12;208.00;;;62.80;;
57311;SDS011;43154;50.966;18.316;2023-03-01T07:19:39;405.80;;;110.70;;
57311;SDS011;43154;50.966;18.316;2023-03-01T07:22:10;322.10;;;88.40;;
57311;SDS011;43154;50.966;18.316;2023-03-01T07:24:36;162.20;;;50.80;;
57311;SDS011;43154;50.966;18.316;2023-03-01T07:27:03;137.70;;;44.60;;
57311;SDS011;43154;50.966;18.316;2023-03-01T07:29:29;150.80;;;50.70;;
57311;SDS011;43154;50.966;18.316;2023-03-01T07:31:56;269.70;;;81.00;;
57311;SDS011;43154;50.966;18.316;2023-03-01T07:34:22;275.70;;;92.20;;
57311;SDS011;43154;50.966;18.316;2023-03-01T07:36:48;236.00;;;80.20;;
57311;SDS011;43154;50.966;18.316;2023-03-01T07:39:15;189.50;;;69.50;;
57311;SDS011;43154;50.966;18.316;2023-03-01T07:41:41;184.60;;;64.60;;
57311;SDS011;43154;50.966;18.316;2023-03-01T07:44:07;173.90;;;59.00;;
57311;SDS011;43154;50.966;18.316;2023-03-01T07:46:38;159.00;;;54.00;;
57311;SDS011;43154;50.966;18.316;2023-03-01T07:49:05;156.60;;;51.70;;
57311;SDS011;43154;50.966;18.316;2023-03-01T07:51:33;206.60;;;80.50;;
57311;SDS011;43154;50.966;18.316;2023-03-01T07:54:00;166.60;;;57.80;;
57311;SDS011;43154;50.966;18.316;2023-03-01T07:56:26;118.10;;;44.00;;
57311;SDS011;43154;50.966;18.316;2023-03-01T07:58:52;122.10;;;43.70;;
57311;SDS011;43154;50.966;18.316;2023-03-01T08:01:19;108.00;;;38.80;;
57311;SDS011;43154;50.966;18.316;2023-03-01T08:03:46;105.90;;;40.10;;
57311;SDS011;43154;50.966;18.316;2023-03-01T08:06:16;101.50;;;38.10;;
57311;SDS011;43154;50.966;18.316;2023-03-01T08:08:44;95.30;;;40.30;;
57311;SDS011;43154;50.966;18.316;2023-03-01T08:11:14;82.00;;;31.60;;
57311;SDS011;43154;50.966;18.316;2023-03-01T08:13:42;82.40;;;33.70;;
57311;SDS011;43154;50.966;18.316;2023-03-01T08:16:13;86.40;;;35.00;;
57311;SDS011;43154;50.966;18.316;2023-03-01T08:18:41;82.90;;;33.00;;
57311;SDS011;43154;50.966;18.316;2023-03-01T08:21:16;70.50;;;28.10;;
57311;SDS011;43154;50.966;18.316;2023-03-01T08:23:46;72.70;;;28.20;;
57311;SDS011;43154;50.966;18.316;2023-03-01T08:26:16;59.10;;;23.80;;
57311;SDS011;43154;50.966;18.316;2023-03-01T08:32:22;64.10;;;26.50;;
57311;SDS011;43154;50.966;18.316;2023-03-01T08:34:48;64.60;;;25.80;;
57311;SDS011;43154;50.966;18.316;2023-03-01T08:37:14;53.80;;;23.10;;
57311;SDS011;43154;50.966;18.316;2023-03-01T08:39:39;56.90;;;24.00;;
57311;SDS011;43154;50.966;18.316;2023-03-01T09:15:00;55.00;;;27.20;;
57311;SDS011;43154;50.966;18.316;2023-03-01T09:17:26;49.50;;;23.80;;
57311;SDS011;43154;50.966;18.316;2023-03-01T09:19:51;48.10;;;24.20;;
57311;SDS011;43154;50.966;18.316;2023-03-01T09:22:17;42.40;;;20.40;;
57311;SDS011;43154;50.966;18.316;2023-03-01T09:24:44;50.00;;;24.30;;
57311;SDS011;43154;50.966;18.316;2023-03-01T09:27:10;52.00;;;23.70;;
57311;SDS011;43154;50.966;18.316;2023-03-01T09:29:38;43.90;;;21.50;;
57311;SDS011;43154;50.966;18.316;2023-03-01T09:32:08;41.50;;;21.10;;
57311;SDS011;43154;50.966;18.316;2023-03-01T09:34:33;48.90;;;23.70;;
57311;SDS011;43154;50.966;18.316;2023-03-01T09:37:19;44.70;;;21.30;;
57311;SDS011;43154;50.966;18.316;2023-03-01T09:39:45;38.20;;;16.40;;
57311;SDS011;43154;50.966;18.316;2023-03-01T09:42:10;42.90;;;20.50;;
57311;SDS011;43154;50.966;18.316;2023-03-01T09:47:27;39.00;;;18.00;;
57311;SDS011;43154;50.966;18.316;2023-03-01T09:50:12;31.80;;;15.40;;
57311;SDS011;43154;50.966;18.316;2023-03-01T09:52:59;34.00;;;16.70;;
57311;SDS011;43154;50.966;18.316;2023-03-01T09:55:48;34.80;;;17.10;;
57311;SDS011;43154;50.966;18.316;2023-03-01T10:09:39;49.70;;;24.50;;
57311;SDS011;43154;50.966;18.316;2023-03-01T10:12:12;51.40;;;24.50;;
57311;SDS011;43154;50.966;18.316;2023-03-01T10:14:57;46.80;;;22.10;;
57311;SDS011;43154;50.966;18.316;2023-03-01T10:20:21;45.20;;;22.30;;
57311;SDS011;43154;50.966;18.316;2023-03-01T10:22:48;42.30;;;21.70;;
57311;SDS011;43154;50.966;18.316;2023-03-01T10:28:20;41.00;;;20.90;;
57311;SDS011;43154;50.966;18.316;2023-03-01T10:30:48;36.90;;;18.40;;
57311;SDS011;43154;50.966;18.316;2023-03-01T10:33:16;47.60;;;19.80;;
57311;SDS011;43154;50.966;18.316;2023-03-01T10:35:46;35.40;;;18.40;;
57311;SDS011;43154;50.966;18.316;2023-03-01T10:38:13;35.90;;;19.10;;
57311;SDS011;43154;50.966;18.316;2023-03-01T10:40:55;35.70;;;18.60;;
57311;SDS011;43154;50.966;18.316;2023-03-01T10:43:24;33.90;;;17.60;;
57311;SDS011;43154;50.966;18.316;2023-03-01T10:45:51;33.90;;;17.80;;
57311;SDS011;43154;50.966;18.316;2023-03-01T10:48:21;37.40;;;19.30;;
57311;SDS011;43154;50.966;18.316;2023-03-01T10:53:32;34.90;;;17.80;;
57311;SDS011;43154;50.966;18.316;2023-03-01T10:56:09;44.30;;;20.00;;
57311;SDS011;43154;50.966;18.316;2023-03-01T10:58:40;35.30;;;16.60;;
57311;SDS011;43154;50.966;18.316;2023-03-01T11:03:55;38.30;;;19.80;;
57311;SDS011;43154;50.966;18.316;2023-03-01T11:06:35;37.20;;;19.30;;
57311;SDS011;43154;50.966;18.316;2023-03-01T11:09:14;39.50;;;20.20;;
57311;SDS011;43154;50.966;18.316;2023-03-01T11:11:45;38.30;;;18.50;;
57311;SDS011;43154;50.966;18.316;2023-03-01T11:14:21;39.20;;;20.30;;
57311;SDS011;43154;50.966;18.316;2023-03-01T11:17:18;36.50;;;18.60;;
57311;SDS011;43154;50.966;18.316;2023-03-01T11:19:59;37.60;;;19.40;;
57311;SDS011;43154;50.966;18.316;2023-03-01T11:22:26;39.40;;;20.10;;
57311;SDS011;43154;50.966;18.316;2023-03-01T11:24:53;40.70;;;20.80;;
57311;SDS011;43154;50.966;18.316;2023-03-01T11:29:55;40.50;;;20.70;;
57311;SDS011;43154;50.966;18.316;2023-03-01T11:37:26;39.00;;;20.00;;
57311;SDS011;43154;50.966;18.316;2023-03-01T11:40:15;38.90;;;20.00;;
57311;SDS011;43154;50.966;18.316;2023-03-01T11:45:10;39.00;;;21.00;;
57311;SDS011;43154;50.966;18.316;2023-03-01T11:55:58;52.90;;;21.70;;
57311;SDS011;43154;50.966;18.316;2023-03-01T12:15:54;40.30;;;19.50;;
57311;SDS011;43154;50.966;18.316;2023-03-01T12:18:48;36.20;;;18.10;;
57311;SDS011;43154;50.966;18.316;2023-03-01T12:29:24;44.00;;;22.10;;
57311;SDS011;43154;50.966;18.316;2023-03-01T12:34:33;41.80;;;22.00;;
57311;SDS011;43154;50.966;18.316;2023-03-01T12:37:42;46.10;;;21.70;;
57311;SDS011;43154;50.966;18.316;2023-03-01T12:44:03;41.20;;;22.00;;
57311;SDS011;43154;50.966;18.316;2023-03-01T12:46:44;43.60;;;22.50;;
57311;SDS011;43154;50.966;18.316;2023-03-01T12:52:38;36.50;;;18.70;;
57311;SDS011;43154;50.966;18.316;2023-03-01T12:55:18;36.90;;;20.20;;
57311;SDS011;43154;50.966;18.316;2023-03-01T13:01:03;38.70;;;19.90;;
57311;SDS011;43154;50.966;18.316;2023-03-01T13:06:29;40.40;;;20.40;;
57311;SDS011;43154;50.966;18.316;2023-03-01T13:09:04;38.60;;;19.10;;
57311;SDS011;43154;50.966;18.316;2023-03-01T13:11:51;33.70;;;17.80;;
57311;SDS011;43154;50.966;18.316;2023-03-01T13:16:45;36.80;;;17.90;;
57311;SDS011;43154;50.966;18.316;2023-03-01T13:19:17;34.50;;;17.30;;
57311;SDS011;43154;50.966;18.316;2023-03-01T13:21:45;34.30;;;17.50;;
57311;SDS011;43154;50.966;18.316;2023-03-01T13:29:52;32.90;;;17.00;;
57311;SDS011;43154;50.966;18.316;2023-03-01T13:32:22;32.20;;;16.60;;
57311;SDS011;43154;50.966;18.316;2023-03-01T13:34:51;32.90;;;16.40;;
57311;SDS011;43154;50.966;18.316;2023-03-01T13:37:22;34.80;;;17.00;;
57311;SDS011;43154;50.966;18.316;2023-03-01T13:39:55;33.80;;;17.60;;
57311;SDS011;43154;50.966;18.316;2023-03-01T13:44:52;32.60;;;16.00;;
57311;SDS011;43154;50.966;18.316;2023-03-01T13:47:18;32.50;;;16.50;;
57311;SDS011;43154;50.966;18.316;2023-03-01T13:57:58;31.10;;;15.60;;
57311;SDS011;43154;50.966;18.316;2023-03-01T14:03:15;29.10;;;14.90;;
57311;SDS011;43154;50.966;18.316;2023-03-01T14:05:57;28.10;;;14.70;;
57311;SDS011;43154;50.966;18.316;2023-03-01T14:08:26;28.20;;;14.90;;
57311;SDS011;43154;50.966;18.316;2023-03-01T14:17:11;27.70;;;14.30;;
57311;SDS011;43154;50.966;18.316;2023-03-01T14:20:08;36.30;;;16.30;;
57311;SDS011;43154;50.966;18.316;2023-03-01T14:22:40;37.60;;;16.10;;
57311;SDS011;43154;50.966;18.316;2023-03-01T14:25:19;29.40;;;14.60;;
57311;SDS011;43154;50.966;18.316;2023-03-01T14:27:51;32.10;;;13.80;;
57311;SDS011;43154;50.966;18.316;2023-03-01T14:30:34;27.80;;;14.20;;
57311;SDS011;43154;50.966;18.316;2023-03-01T14:33:03;30.70;;;15.50;;
57311;SDS011;43154;50.966;18.316;2023-03-01T14:35:32;27.10;;;13.50;;
57311;SDS011;43154;50.966;18.316;2023-03-01T14:38:00;28.50;;;13.40;;
57311;SDS011;43154;50.966;18.316;2023-03-01T14:40:27;29.80;;;14.40;;
57311;SDS011;43154;50.966;18.316;2023-03-01T14:42:56;30.20;;;14.10;;
57311;SDS011;43154;50.966;18.316;2023-03-01T14:45:24;29.40;;;14.10;;
57311;SDS011;43154;50.966;18.316;2023-03-01T14:47:52;30.60;;;13.90;;
57311;SDS011;43154;50.966;18.316;2023-03-01T14:52:55;26.60;;;12.80;;
57311;SDS011;43154;50.966;18.316;2023-03-01T14:55:27;30.10;;;13.60;;
57311;SDS011;43154;50.966;18.316;2023-03-01T14:57:57;31.00;;;14.10;;
57311;SDS011;43154;50.966;18.316;2023-03-01T15:00:33;29.30;;;12.00;;
57311;SDS011;43154;50.966;18.316;2023-03-01T15:03:11;27.60;;;12.60;;
57311;SDS011;43154;50.966;18.316;2023-03-01T15:05:39;26.80;;;11.60;;
57311;SDS011;43154;50.966;18.316;2023-03-01T15:08:06;29.30;;;12.70;;
57311;SDS011;43154;50.966;18.316;2023-03-01T15:10:33;25.50;;;11.90;;
57311;SDS011;43154;50.966;18.316;2023-03-01T15:13:11;24.80;;;10.50;;
57311;SDS011;43154;50.966;18.316;2023-03-01T15:15:47;24.00;;;11.60;;
57311;SDS011;43154;50.966;18.316;2023-03-01T15:18:17;24.10;;;11.30;;
57311;SDS011;43154;50.966;18.316;2023-03-01T15:20:47;27.30;;;11.20;;
57311;SDS011;43154;50.966;18.316;2023-03-01T15:23:19;23.80;;;10.30;;
57311;SDS011;43154;50.966;18.316;2023-03-01T15:25:48;21.00;;;9.60;;
57311;SDS011;43154;50.966;18.316;2023-03-01T15:28:22;21.80;;;9.70;;
57311;SDS011;43154;50.966;18.316;2023-03-01T15:30:54;23.40;;;10.10;;
57311;SDS011;43154;50.966;18.316;2023-03-01T15:35:58;25.00;;;10.10;;
57311;SDS011;43154;50.966;18.316;2023-03-01T15:41:22;22.80;;;9.60;;
57311;SDS011;43154;50.966;18.316;2023-03-01T15:43:52;24.00;;;10.00;;
57311;SDS011;43154;50.966;18.316;2023-03-01T15:46:24;23.40;;;10.40;;
57311;SDS011;43154;50.966;18.316;2023-03-01T15:48:59;21.80;;;9.20;;
57311;SDS011;43154;50.966;18.316;2023-03-01T15:51:30;25.10;;;10.20;;
57311;SDS011;43154;50.966;18.316;2023-03-01T15:54:05;25.70;;;10.50;;
57311;SDS011;43154;50.966;18.316;2023-03-01T15:56:43;25.50;;;10.70;;
57311;SDS011;43154;50.966;18.316;2023-03-01T15:59:10;26.90;;;10.60;;
57311;SDS011;43154;50.966;18.316;2023-03-01T16:01:40;25.40;;;10.90;;
57311;SDS011;43154;50.966;18.316;2023-03-01T16:04:11;25.80;;;11.20;;
57311;SDS011;43154;50.966;18.316;2023-03-01T16:06:46;26.70;;;11.40;;
57311;SDS011;43154;50.966;18.316;2023-03-01T16:09:24;27.70;;;11.80;;
57311;SDS011;43154;50.966;18.316;2023-03-01T16:11:52;26.00;;;11.50;;
57311;SDS011;43154;50.966;18.316;2023-03-01T16:17:40;28.20;;;11.20;;
57311;SDS011;43154;50.966;18.316;2023-03-01T16:20:06;29.30;;;11.40;;
57311;SDS011;43154;50.966;18.316;2023-03-01T16:22:32;29.20;;;12.00;;
57311;SDS011;43154;50.966;18.316;2023-03-01T16:24:58;28.80;;;12.00;;
57311;SDS011;43154;50.966;18.316;2023-03-01T16:27:24;28.40;;;12.10;;
57311;SDS011;43154;50.966;18.316;2023-03-01T16:29:50;32.20;;;12.70;;
57311;SDS011;43154;50.966;18.316;2023-03-01T16:32:15;35.70;;;13.90;;
57311;SDS011;43154;50.966;18.316;2023-03-01T16:34:41;46.80;;;16.70;;
57311;SDS011;43154;50.966;18.316;2023-03-01T16:37:07;37.80;;;15.10;;
57311;SDS011;43154;50.966;18.316;2023-03-01T16:39:32;35.70;;;14.50;;
57311;SDS011;43154;50.966;18.316;2023-03-01T16:41:59;33.80;;;13.10;;
57311;SDS011;43154;50.966;18.316;2023-03-01T16:44:26;29.20;;;12.40;;
57311;SDS011;43154;50.966;18.316;2023-03-01T16:46:51;47.40;;;17.00;;
57311;SDS011;43154;50.966;18.316;2023-03-01T16:49:17;72.90;;;24.30;;
57311;SDS011;43154;50.966;18.316;2023-03-01T16:51:43;84.10;;;26.00;;
57311;SDS011;43154;50.966;18.316;2023-03-01T16:54:09;226.20;;;58.80;;
57311;SDS011;43154;50.966;18.316;2023-03-01T16:56:36;49.50;;;18.60;;
57311;SDS011;43154;50.966;18.316;2023-03-01T16:59:04;76.90;;;23.00;;
57311;SDS011;43154;50.966;18.316;2023-03-01T17:01:31;61.10;;;20.40;;
57311;SDS011;43154;50.966;18.316;2023-03-01T17:04:04;73.10;;;25.70;;
57311;SDS011;43154;50.966;18.316;2023-03-01T17:06:30;55.30;;;21.60;;
57311;SDS011;43154;50.966;18.316;2023-03-01T17:08:58;119.10;;;43.00;;
57311;SDS011;43154;50.966;18.316;2023-03-01T17:11:24;162.90;;;56.30;;
57311;SDS011;43154;50.966;18.316;2023-03-01T17:13:51;89.60;;;33.90;;
57311;SDS011;43154;50.966;18.316;2023-03-01T17:16:18;93.50;;;33.40;;
57311;SDS011;43154;50.966;18.316;2023-03-01T17:18:45;86.00;;;29.60;;
57311;SDS011;43154;50.966;18.316;2023-03-01T17:21:11;67.40;;;23.20;;
57311;SDS011;43154;50.966;18.316;2023-03-01T17:23:38;58.00;;;20.50;;
57311;SDS011;43154;50.966;18.316;2023-03-01T17:26:05;53.70;;;18.40;;
57311;SDS011;43154;50.966;18.316;2023-03-01T17:28:32;57.00;;;20.00;;
57311;SDS011;43154;50.966;18.316;2023-03-01T17:30:59;57.10;;;20.90;;